createdAt,value
2019-05-22T00:00:40.914Z,12.40
2019-05-22T00:03:10.278Z,12.40
2019-05-22T00:05:37.774Z,12.40
2019-05-22T00:08:06.069Z,12.40
2019-05-22T00:10:34.029Z,12.40
2019-05-22T00:13:03.923Z,12.40
2019-05-22T00:15:32.925Z,12.40
2019-05-22T00:18:04.274Z,12.40
2019-05-22T00:20:31.157Z,12.40
2019-05-22T00:22:59.392Z,12.40
2019-05-22T00:25:28.347Z,12.30
2019-05-22T00:27:58.761Z,12.30
2019-05-22T00:30:28.431Z,12.20
2019-05-22T00:32:56.045Z,12.20
2019-05-22T00:35:24.731Z,12.20
2019-05-22T00:37:53.893Z,12.20
2019-05-22T00:40:21.794Z,12.20
2019-05-22T00:43:03.280Z,12.20
2019-05-22T00:45:20.670Z,12.20
2019-05-22T00:47:50.391Z,12.10
2019-05-22T00:50:21.853Z,12.10
2019-05-22T00:52:59.644Z,12.10
2019-05-22T00:55:41.272Z,12.10
2019-05-22T00:58:28.786Z,12.10
2019-05-22T01:01:01.661Z,12.10
2019-05-22T01:03:33.060Z,12.00
2019-05-22T01:06:00.864Z,12.10
2019-05-22T01:08:28.013Z,12.10
2019-05-22T01:10:57.010Z,12.10
2019-05-22T01:13:28.319Z,12.10
2019-05-22T01:15:55.524Z,12.10
2019-05-22T01:18:24.900Z,12.10
2019-05-22T01:20:54.550Z,12.10
2019-05-22T01:23:23.264Z,12.10
2019-05-22T01:25:51.410Z,12.10
2019-05-22T01:28:19.050Z,12.10
2019-05-22T01:30:51.640Z,12.10
2019-05-22T01:33:25.646Z,12.10
2019-05-22T01:36:10.028Z,12.10
2019-05-22T01:38:38.626Z,12.10
2019-05-22T01:41:11.935Z,12.20
2019-05-22T01:43:41.371Z,12.20
2019-05-22T01:46:09.095Z,12.20
2019-05-22T01:48:39.714Z,12.20
2019-05-22T01:51:10.523Z,12.20
2019-05-22T01:53:40.395Z,12.30
2019-05-22T01:56:10.714Z,12.30
2019-05-22T01:58:40.741Z,12.20
2019-05-22T02:01:12.747Z,12.20
2019-05-22T02:03:41.249Z,12.20
2019-05-22T02:06:09.505Z,12.20
2019-05-22T02:08:43.322Z,12.10
2019-05-22T02:11:13.422Z,12.10
2019-05-22T02:13:46.805Z,12.10
2019-05-22T02:16:13.913Z,12.10
2019-05-22T02:18:44.450Z,12.10
2019-05-22T02:21:12.462Z,12.10
2019-05-22T02:23:40.072Z,12.10
2019-05-22T02:26:09.093Z,12.10
2019-05-22T02:28:36.302Z,12.10
2019-05-22T02:31:03.618Z,12.10
2019-05-22T02:33:31.670Z,12.10
2019-05-22T02:35:59.553Z,12.00
2019-05-22T02:38:26.399Z,12.00
2019-05-22T02:40:54.418Z,12.00
2019-05-22T02:43:24.019Z,12.00
2019-05-22T02:45:51.046Z,11.90
2019-05-22T02:48:20.054Z,11.90
2019-05-22T02:50:47.966Z,11.90
2019-05-22T02:53:15.397Z,11.90
2019-05-22T02:55:42.691Z,11.90
2019-05-22T02:58:12.447Z,12.00
2019-05-22T03:00:56.443Z,12.00
2019-05-22T03:03:24.279Z,12.00
2019-05-22T03:05:53.999Z,12.00
2019-05-22T03:08:21.608Z,12.00
2019-05-22T03:10:49.686Z,12.10
2019-05-22T03:13:18.796Z,12.10
2019-05-22T03:15:46.062Z,12.00
2019-05-22T03:18:14.571Z,12.00
2019-05-22T03:20:42.967Z,12.10
2019-05-22T03:23:39.836Z,12.10
2019-05-22T03:26:08.593Z,12.10
2019-05-22T03:28:36.475Z,12.00
2019-05-22T03:31:04.349Z,12.00
2019-05-22T03:33:31.394Z,12.00
2019-05-22T03:36:06.243Z,12.00
2019-05-22T03:38:34.004Z,12.00
2019-05-22T03:41:01.032Z,12.00
2019-05-22T03:43:30.151Z,12.00
2019-05-22T03:46:02.237Z,12.10
2019-05-22T03:48:33.494Z,12.00
2019-05-22T03:51:09.023Z,12.10
2019-05-22T03:53:36.558Z,12.10
2019-05-22T03:56:03.585Z,12.10
2019-05-22T03:58:30.784Z,12.00
2019-05-22T04:01:00.690Z,12.00
2019-05-22T04:03:28.465Z,12.00
2019-05-22T04:05:56.129Z,12.10
2019-05-22T04:08:24.852Z,12.00
2019-05-22T04:10:56.331Z,12.00
2019-05-22T04:13:23.622Z,11.90
2019-05-22T04:15:51.213Z,12.00
2019-05-22T04:18:22.762Z,12.00
2019-05-22T04:20:48.306Z,12.00
2019-05-22T04:23:15.300Z,12.00
2019-05-22T04:25:43.839Z,12.00
2019-05-22T04:28:10.942Z,12.00
2019-05-22T04:30:37.959Z,12.00
2019-05-22T04:33:06.660Z,12.00
2019-05-22T04:35:33.954Z,12.10
2019-05-22T04:38:00.995Z,12.00
2019-05-22T04:40:48.373Z,12.00
2019-05-22T04:43:20.247Z,12.00
2019-05-22T04:45:49.163Z,12.10
2019-05-22T04:48:17.195Z,12.10
2019-05-22T04:50:45.370Z,12.00
2019-05-22T04:53:13.032Z,12.10
2019-05-22T04:55:40.037Z,12.10
2019-05-22T04:58:09.874Z,12.20
2019-05-22T05:00:37.518Z,12.10
2019-05-22T05:03:04.767Z,12.20
2019-05-22T05:05:34.374Z,12.30
2019-05-22T05:08:02.621Z,12.10
2019-05-22T05:10:29.654Z,12.20
2019-05-22T05:12:57.773Z,12.30
2019-05-22T05:15:24.749Z,12.40
2019-05-22T05:17:51.838Z,12.40
2019-05-22T05:20:22.602Z,12.40
2019-05-22T05:22:48.354Z,12.50
2019-05-22T05:25:17.584Z,12.50
2019-05-22T05:27:45.823Z,12.70
2019-05-22T05:30:15.581Z,12.80
2019-05-22T05:32:42.738Z,12.80
2019-05-22T05:35:11.081Z,12.80
2019-05-22T05:37:38.997Z,12.70
2019-05-22T05:40:32.747Z,12.80
2019-05-22T05:43:00.473Z,13.10
2019-05-22T05:45:28.697Z,13.20
2019-05-22T05:47:57.281Z,13.10
2019-05-22T05:50:38.937Z,13.10
2019-05-22T05:52:57.587Z,13.20
2019-05-22T05:55:28.103Z,13.40
2019-05-22T05:58:25.930Z,13.50
2019-05-22T06:00:59.302Z,13.60
2019-05-22T06:03:31.834Z,13.60
2019-05-22T06:06:04.753Z,13.70
2019-05-22T06:08:33.146Z,13.80
2019-05-22T06:11:42.067Z,13.90
2019-05-22T06:14:17.603Z,13.80
2019-05-22T06:17:20.506Z,13.70
2019-05-22T06:19:50.153Z,13.70
2019-05-22T06:22:18.587Z,14.00
2019-05-22T06:24:57.688Z,14.30
2019-05-22T06:27:35.013Z,14.60
2019-05-22T06:30:09.723Z,14.70
2019-05-22T06:33:16.536Z,14.60
2019-05-22T06:35:45.674Z,14.80
2019-05-22T06:38:59.074Z,14.90
2019-05-22T06:41:34.354Z,15.00
2019-05-22T06:44:31.997Z,15.40
2019-05-22T06:46:59.750Z,15.50
2019-05-22T06:49:38.543Z,15.70
2019-05-22T06:52:07.014Z,15.60
2019-05-22T06:54:34.022Z,15.80
2019-05-22T06:57:01.135Z,16.10
2019-05-22T06:59:28.318Z,16.30
2019-05-22T07:02:01.290Z,16.40
2019-05-22T07:04:26.658Z,16.20
2019-05-22T07:06:54.026Z,16.30
2019-05-22T07:09:22.355Z,16.30
2019-05-22T07:11:50.775Z,16.30
2019-05-22T07:14:18.238Z,16.30
2019-05-22T07:16:47.967Z,16.00
2019-05-22T07:19:15.176Z,16.30
2019-05-22T07:21:42.908Z,16.70
2019-05-22T07:24:10.326Z,16.70
2019-05-22T07:26:38.471Z,16.80
2019-05-22T07:29:05.813Z,16.90
2019-05-22T07:31:33.144Z,16.90
2019-05-22T07:34:00.587Z,17.20
2019-05-22T07:36:29.893Z,17.20
2019-05-22T07:38:57.112Z,17.00
2019-05-22T07:41:24.487Z,17.10
2019-05-22T07:43:51.710Z,17.20
2019-05-22T07:46:19.189Z,17.20
2019-05-22T07:48:46.434Z,17.30
2019-05-22T07:51:14.545Z,17.30
2019-05-22T07:53:41.553Z,17.50
2019-05-22T07:56:11.250Z,17.70
2019-05-22T07:58:40.029Z,17.10
2019-05-22T08:01:08.931Z,17.40
2019-05-22T08:03:36.691Z,17.70
2019-05-22T08:06:05.024Z,17.90
2019-05-22T08:08:35.499Z,18.00
2019-05-22T08:11:04.167Z,18.20
2019-05-22T08:13:32.473Z,18.00
2019-05-22T08:15:59.808Z,17.80
2019-05-22T08:18:29.692Z,17.90
2019-05-22T08:20:57.252Z,17.60
2019-05-22T08:23:26.066Z,17.90
2019-05-22T08:25:53.116Z,17.70
2019-05-22T08:28:20.211Z,17.60
2019-05-22T08:30:48.627Z,17.60
2019-05-22T08:33:16.531Z,17.50
2019-05-22T08:35:44.212Z,17.70
2019-05-22T08:38:11.811Z,17.70
2019-05-22T08:40:39.879Z,17.90
2019-05-22T08:43:07.122Z,17.90
2019-05-22T08:45:35.058Z,18.20
2019-05-22T08:48:02.978Z,18.50
2019-05-22T08:50:32.000Z,18.40
2019-05-22T08:53:00.365Z,18.40
2019-05-22T08:55:28.929Z,18.30
2019-05-22T08:57:56.169Z,18.10
2019-05-22T09:00:25.138Z,18.00
2019-05-22T09:02:52.242Z,17.90
2019-05-22T09:05:21.551Z,17.90
2019-05-22T09:07:48.107Z,17.90
2019-05-22T09:10:15.694Z,18.00
2019-05-22T09:12:43.177Z,18.30
2019-05-22T09:15:10.754Z,18.30
2019-05-22T09:17:38.066Z,18.30
2019-05-22T09:20:06.047Z,18.20
2019-05-22T09:22:40.526Z,18.40
2019-05-22T09:25:06.257Z,18.20
2019-05-22T09:27:38.741Z,18.40
2019-05-22T09:30:06.285Z,18.70
2019-05-22T09:32:33.198Z,19.00
2019-05-22T09:35:00.051Z,19.20
2019-05-22T09:37:27.026Z,19.20
2019-05-22T09:39:54.139Z,18.60
2019-05-22T09:42:21.509Z,18.70
2019-05-22T09:44:48.530Z,19.00
2019-05-22T09:47:17.547Z,19.90
2019-05-22T09:49:45.394Z,19.90
2019-05-22T09:52:13.211Z,19.70
2019-05-22T09:54:41.605Z,19.50
2019-05-22T09:57:08.470Z,19.40
2019-05-22T09:59:35.524Z,19.20
2019-05-22T10:02:04.251Z,19.00
2019-05-22T10:04:31.826Z,18.80
2019-05-22T10:06:58.877Z,18.70
2019-05-22T10:09:26.188Z,18.40
2019-05-22T10:11:53.387Z,19.00
2019-05-22T10:14:20.926Z,19.20
2019-05-22T10:16:48.249Z,19.40
2019-05-22T10:19:16.175Z,19.80
2019-05-22T10:21:43.436Z,20.10
2019-05-22T10:24:10.438Z,20.30
2019-05-22T10:26:37.754Z,20.20
2019-05-22T10:29:06.251Z,19.20
2019-05-22T10:31:33.647Z,19.40
2019-05-22T10:34:00.757Z,19.60
2019-05-22T10:36:28.150Z,19.90
2019-05-22T10:38:55.055Z,19.40
2019-05-22T10:41:22.554Z,19.80
2019-05-22T10:43:50.195Z,20.40
2019-05-22T10:46:17.017Z,20.20
2019-05-22T10:48:44.024Z,19.80
2019-05-22T10:51:11.339Z,20.00
2019-05-22T10:53:39.142Z,19.90
2019-05-22T10:56:06.115Z,20.30
2019-05-22T10:58:33.532Z,20.00
2019-05-22T11:01:00.528Z,19.40
2019-05-22T11:03:29.099Z,20.20
2019-05-22T11:06:06.345Z,20.40
2019-05-22T11:08:29.474Z,20.50
2019-05-22T11:10:54.507Z,20.30
2019-05-22T11:13:21.400Z,20.60
2019-05-22T11:15:48.814Z,20.30
2019-05-22T11:18:15.952Z,20.20
2019-05-22T11:20:43.094Z,20.00
2019-05-22T11:23:10.993Z,20.00
2019-05-22T11:25:38.138Z,20.00
2019-05-22T11:28:05.351Z,19.80
2019-05-22T11:30:33.286Z,20.00
2019-05-22T11:33:00.839Z,20.00
2019-05-22T11:35:28.004Z,19.80
2019-05-22T11:37:54.997Z,19.40
2019-05-22T11:40:22.135Z,19.40
2019-05-22T11:42:50.740Z,19.50
2019-05-22T11:45:19.397Z,19.30
2019-05-22T11:47:46.523Z,19.10
2019-05-22T11:50:15.419Z,18.90
2019-05-22T11:52:42.789Z,18.80
2019-05-22T11:55:12.501Z,18.50
2019-05-22T11:57:40.862Z,18.30
2019-05-22T12:00:10.875Z,18.50
2019-05-22T12:02:38.155Z,18.50
2019-05-22T12:05:06.802Z,18.30
2019-05-22T12:07:34.595Z,18.20
2019-05-22T12:10:01.975Z,18.20
2019-05-22T12:12:29.067Z,18.40
2019-05-22T12:14:55.986Z,18.50
2019-05-22T12:17:37.477Z,18.50
2019-05-22T12:19:52.431Z,18.50
2019-05-22T12:22:20.177Z,18.50
2019-05-22T12:24:47.683Z,18.50
2019-05-22T12:27:15.288Z,18.60
2019-05-22T12:29:42.743Z,18.40
2019-05-22T12:32:10.480Z,18.60
2019-05-22T12:34:42.356Z,18.80
2019-05-22T12:37:09.895Z,18.90
2019-05-22T12:39:38.419Z,19.10
2019-05-22T12:42:07.433Z,19.20
2019-05-22T12:44:34.858Z,19.20
2019-05-22T12:47:02.721Z,19.00
2019-05-22T12:49:29.759Z,18.80
2019-05-22T12:51:57.694Z,18.60
2019-05-22T12:54:24.811Z,18.30
2019-05-22T12:56:51.932Z,18.40
2019-05-22T12:59:19.654Z,17.70
2019-05-22T13:01:48.774Z,17.20
2019-05-22T13:04:16.199Z,16.90
2019-05-22T13:06:43.551Z,16.70
2019-05-22T13:09:11.362Z,16.80
2019-05-22T13:11:38.554Z,16.50
2019-05-22T13:14:06.121Z,16.30
2019-05-22T13:16:33.455Z,16.10
2019-05-22T13:19:01.080Z,15.70
2019-05-22T13:21:34.561Z,15.80
2019-05-22T13:24:13.338Z,15.90
2019-05-22T13:26:40.790Z,15.70
2019-05-22T13:29:09.911Z,15.70
2019-05-22T13:31:37.440Z,15.90
2019-05-22T13:34:04.598Z,15.70
2019-05-22T13:36:32.294Z,15.30
2019-05-22T13:38:59.735Z,15.40
2019-05-22T13:41:26.782Z,15.30
2019-05-22T13:43:54.001Z,15.40
2019-05-22T13:46:21.198Z,15.30
2019-05-22T13:48:48.238Z,15.40
2019-05-22T13:51:15.374Z,15.50
2019-05-22T13:53:43.828Z,15.60
2019-05-22T13:56:11.497Z,15.60
2019-05-22T13:58:39.003Z,15.50
2019-05-22T14:01:06.607Z,15.40
2019-05-22T14:03:34.056Z,15.20
2019-05-22T14:06:02.076Z,15.00
2019-05-22T14:08:29.245Z,14.70
2019-05-22T14:10:56.985Z,14.70
2019-05-22T14:13:25.010Z,14.90
2019-05-22T14:15:56.532Z,14.80
2019-05-22T14:18:21.146Z,14.80
2019-05-22T14:20:48.622Z,14.80
2019-05-22T14:23:16.311Z,14.80
2019-05-22T14:25:45.542Z,14.50
2019-05-22T14:28:14.890Z,14.40
2019-05-22T14:30:43.028Z,14.30
2019-05-22T14:33:10.491Z,14.40
2019-05-22T14:35:48.091Z,14.40
2019-05-22T14:38:08.595Z,14.40
2019-05-22T14:40:37.207Z,14.40
2019-05-22T14:43:04.243Z,14.20
2019-05-22T14:45:31.374Z,14.10
2019-05-22T14:47:58.421Z,14.00
2019-05-22T14:50:25.849Z,13.90
2019-05-22T14:52:52.963Z,13.90
2019-05-22T14:55:21.051Z,14.10
2019-05-22T14:57:48.388Z,14.10
2019-05-22T15:00:21.055Z,14.10
2019-05-22T15:02:54.182Z,14.00
2019-05-22T15:05:17.599Z,14.10
2019-05-22T15:07:44.732Z,14.00
2019-05-22T15:10:16.676Z,13.90
2019-05-22T15:12:41.723Z,13.80
2019-05-22T15:15:11.038Z,13.90
2019-05-22T15:17:38.053Z,13.80
2019-05-22T15:20:05.407Z,13.70
2019-05-22T15:22:33.348Z,13.90
2019-05-22T15:25:00.875Z,13.90
2019-05-22T15:27:27.943Z,14.00
2019-05-22T15:29:55.248Z,13.90
2019-05-22T15:32:22.914Z,14.00
2019-05-22T15:34:50.076Z,13.90
2019-05-22T15:37:18.885Z,13.70
2019-05-22T15:39:46.497Z,13.70
2019-05-22T15:42:39.190Z,13.50
2019-05-22T15:45:10.353Z,13.50
2019-05-22T15:47:53.261Z,13.40
2019-05-22T15:50:10.223Z,13.30
2019-05-22T15:52:40.166Z,13.40
2019-05-22T15:55:10.130Z,13.50
2019-05-22T15:57:38.732Z,13.60
2019-05-22T16:00:08.510Z,13.80
2019-05-22T16:02:37.035Z,13.60
2019-05-22T16:05:05.862Z,13.50
2019-05-22T16:07:33.284Z,13.50
2019-05-22T16:10:00.594Z,13.40
2019-05-22T16:12:28.033Z,13.30
2019-05-22T16:14:55.793Z,13.20
2019-05-22T16:17:23.228Z,13.10
2019-05-22T16:19:52.482Z,13.10
2019-05-22T16:22:19.754Z,13.10
2019-05-22T16:24:46.872Z,13.00
2019-05-22T16:27:15.372Z,12.90
2019-05-22T16:29:42.868Z,12.90
2019-05-22T16:32:11.363Z,12.80
2019-05-22T16:34:40.076Z,12.70
2019-05-22T16:37:07.288Z,12.70
2019-05-22T16:39:36.629Z,12.70
2019-05-22T16:42:05.241Z,12.70
2019-05-22T16:44:32.830Z,12.70
2019-05-22T16:47:00.344Z,12.60
2019-05-22T16:49:27.991Z,12.50
2019-05-22T16:51:57.444Z,12.60
2019-05-22T16:54:25.140Z,12.60
2019-05-22T16:56:53.290Z,12.60
2019-05-22T16:59:20.912Z,12.50
2019-05-22T17:01:58.884Z,12.50
2019-05-22T17:04:17.927Z,12.40
2019-05-22T17:06:45.446Z,12.30
2019-05-22T17:09:15.712Z,12.30
2019-05-22T17:11:43.520Z,12.30
2019-05-22T17:14:12.535Z,12.30
2019-05-22T17:16:40.547Z,12.30
2019-05-22T17:19:25.542Z,12.20
2019-05-22T17:21:57.844Z,12.30
2019-05-22T17:24:25.260Z,12.30
2019-05-22T17:26:52.988Z,12.30
2019-05-22T17:29:20.705Z,12.30
2019-05-22T17:31:48.038Z,12.30
2019-05-22T17:34:35.936Z,12.30
2019-05-22T17:37:07.547Z,12.30
2019-05-22T17:39:37.593Z,12.20
2019-05-22T17:42:07.363Z,12.20
2019-05-22T17:44:34.561Z,12.20
2019-05-22T17:47:05.954Z,12.20
2019-05-22T17:49:32.554Z,12.20
2019-05-22T17:52:00.264Z,12.20
2019-05-22T17:54:28.080Z,12.10
2019-05-22T17:56:55.129Z,12.20
2019-05-22T17:59:22.271Z,12.20
2019-05-22T18:01:49.587Z,12.20
2019-05-22T18:04:16.608Z,12.10
2019-05-22T18:06:43.501Z,12.10
2019-05-22T18:09:11.251Z,12.10
2019-05-22T18:11:38.153Z,12.10
2019-05-22T18:14:06.862Z,12.10
2019-05-22T18:16:34.536Z,12.10
2019-05-22T18:19:01.433Z,12.10
2019-05-22T18:21:30.458Z,12.10
2019-05-22T18:23:57.552Z,12.10
2019-05-22T18:26:26.235Z,12.00
2019-05-22T18:28:53.262Z,12.00
2019-05-22T18:31:20.411Z,12.00
2019-05-22T18:33:47.542Z,12.00
2019-05-22T18:36:14.663Z,12.00
2019-05-22T18:38:41.524Z,12.00
2019-05-22T18:41:08.439Z,12.00
2019-05-22T18:43:36.062Z,11.90
2019-05-22T18:46:03.511Z,11.90
2019-05-22T18:48:32.954Z,11.90
2019-05-22T18:50:59.334Z,12.00
2019-05-22T18:53:26.889Z,12.00
2019-05-22T18:55:53.798Z,11.90
2019-05-22T18:58:20.718Z,11.90
2019-05-22T19:00:48.004Z,11.90
2019-05-22T19:03:15.531Z,11.90
2019-05-22T19:05:43.131Z,11.90
2019-05-22T19:08:10.254Z,11.90
2019-05-22T19:10:37.478Z,11.90
2019-05-22T19:13:04.507Z,11.90
2019-05-22T19:15:32.006Z,11.90
2019-05-22T19:17:59.207Z,11.90
2019-05-22T19:20:26.201Z,11.90
2019-05-22T19:23:00.145Z,11.90
2019-05-22T19:25:22.546Z,11.90
2019-05-22T19:27:49.606Z,11.90
2019-05-22T19:30:20.896Z,11.90
2019-05-22T19:32:49.172Z,11.90
2019-05-22T19:35:16.339Z,11.80
2019-05-22T19:37:44.038Z,11.80
2019-05-22T19:40:12.200Z,11.80
2019-05-22T19:42:39.414Z,11.80
2019-05-22T19:45:08.480Z,11.80
2019-05-22T19:47:36.340Z,11.80
2019-05-22T19:50:04.613Z,11.80
2019-05-22T19:52:41.739Z,11.80
2019-05-22T19:55:07.156Z,11.80
2019-05-22T19:57:35.178Z,11.70
2019-05-22T20:00:02.558Z,11.70
2019-05-22T20:02:30.864Z,11.80
2019-05-22T20:04:57.812Z,11.70
2019-05-22T20:07:25.526Z,11.70
2019-05-22T20:09:52.998Z,11.70
2019-05-22T20:12:24.291Z,11.70
2019-05-22T20:14:49.587Z,11.70
2019-05-22T20:17:16.599Z,11.70
2019-05-22T20:19:43.648Z,11.70
2019-05-22T20:22:12.267Z,11.70
2019-05-22T20:24:39.196Z,11.80
2019-05-22T20:27:09.483Z,11.80
2019-05-22T20:29:35.565Z,11.80
2019-05-22T20:32:04.598Z,11.80
2019-05-22T20:34:31.738Z,11.80
2019-05-22T20:36:58.838Z,11.80
2019-05-22T20:39:29.309Z,11.80
2019-05-22T20:41:54.569Z,11.80
2019-05-22T20:44:23.170Z,11.80
2019-05-22T20:46:51.346Z,11.80
2019-05-22T20:49:19.149Z,11.80
2019-05-22T20:51:46.242Z,11.80
2019-05-22T20:54:14.572Z,11.80
2019-05-22T20:56:43.702Z,11.80
2019-05-22T20:59:10.964Z,11.80
2019-05-22T21:01:37.754Z,11.80
2019-05-22T21:04:08.394Z,11.80
2019-05-22T21:06:42.388Z,11.80
2019-05-22T21:09:10.249Z,11.70
2019-05-22T21:11:37.883Z,11.70
2019-05-22T21:14:05.744Z,11.70
2019-05-22T21:16:33.663Z,11.70
2019-05-22T21:19:01.870Z,11.70
2019-05-22T21:21:29.246Z,11.70
2019-05-22T21:24:09.422Z,11.70
2019-05-22T21:26:25.682Z,11.60
2019-05-22T21:28:53.129Z,11.60
2019-05-22T21:31:20.951Z,11.70
2019-05-22T21:33:47.950Z,11.70
2019-05-22T21:36:17.846Z,11.60
2019-05-22T21:38:45.558Z,11.60
2019-05-22T21:41:13.475Z,11.60
2019-05-22T21:43:41.024Z,11.60
2019-05-22T21:46:08.158Z,11.60
2019-05-22T21:48:35.579Z,11.50
2019-05-22T21:51:02.844Z,11.50
2019-05-22T21:53:30.424Z,11.50
2019-05-22T21:56:04.756Z,11.40
2019-05-22T21:58:27.319Z,11.40
2019-05-22T22:01:20.187Z,11.30
2019-05-22T22:03:51.767Z,11.30
2019-05-22T22:06:20.063Z,11.30
2019-05-22T22:08:47.135Z,11.20
2019-05-22T22:11:14.248Z,11.10
2019-05-22T22:13:42.789Z,11.10
2019-05-22T22:16:11.876Z,11.00
2019-05-22T22:18:39.697Z,11.00
2019-05-22T22:21:07.195Z,11.00
2019-05-22T22:23:35.339Z,10.90
2019-05-22T22:26:02.657Z,10.80
2019-05-22T22:28:30.181Z,10.70
2019-05-22T22:31:00.010Z,10.70
2019-05-22T22:33:48.637Z,10.70
2019-05-22T22:36:16.640Z,10.60
2019-05-22T22:38:45.134Z,10.60
2019-05-22T22:41:13.355Z,10.60
2019-05-22T22:43:42.454Z,10.60
2019-05-22T22:46:20.310Z,10.60
2019-05-22T22:48:50.146Z,10.50
2019-05-22T22:51:17.760Z,10.50
2019-05-22T22:53:44.987Z,10.50
2019-05-22T22:56:13.038Z,10.40
2019-05-22T22:58:40.465Z,10.40
2019-05-22T23:01:12.442Z,10.30
2019-05-22T23:03:42.007Z,10.20
2019-05-22T23:06:11.398Z,10.20
2019-05-22T23:08:39.130Z,10.20
2019-05-22T23:11:06.203Z,10.30
2019-05-22T23:13:33.193Z,10.30
2019-05-22T23:16:01.495Z,10.30
2019-05-22T23:19:10.756Z,10.20
2019-05-22T23:21:37.171Z,10.20
2019-05-22T23:24:03.532Z,10.20
2019-05-22T23:26:31.257Z,10.20
2019-05-22T23:28:58.349Z,10.20
2019-05-22T23:31:25.253Z,10.20
2019-05-22T23:33:52.759Z,10.20
2019-05-22T23:36:19.940Z,10.20
2019-05-22T23:38:48.938Z,10.20
2019-05-22T23:41:16.030Z,10.20
2019-05-22T23:43:44.204Z,10.20
2019-05-22T23:46:13.819Z,10.30
2019-05-22T23:48:42.395Z,10.30
2019-05-22T23:51:09.626Z,10.40
2019-05-22T23:53:38.327Z,10.40
2019-05-22T23:56:06.051Z,10.40
2019-05-22T23:58:33.961Z,10.50
